FAOR/JNB METAR and TAF weather

Enter ICAO airport designator
Station Type Date Time Source
FAOR METAR 2021/05/15 02:30 UTC NOAA

FAOR 150230Z 28004KT 250V320 CAVOK 14/M02 Q1022 NOSIG


Station Type Date Time Source
FAOR Decoded METAR 2021/05/15 02:30 UTC NOAA

Station name not available
May 14, 2021 - 10:30 PM EDT / 2021.05.15 0230 UTC
Wind: from the W (280 degrees) at 5 MPH (4 KT) (direction variable):0
Visibility: greater than 7 mile(s):0
Temperature: 57 F (14 C)
Dew Point: 28 F (-2 C)
Relative Humidity: 33%
Pressure (altimeter): 30.18 in. Hg (1022 hPa)
ob: FAOR 150230Z 28004KT 250V320 CAVOK 14/M02 Q1022 NOSIG
cycle: 2

Station Type Date Time Source
FAOR TAF 2021/05/14 18:00 UTC NOAA

TAF FAOR 141600Z 1418/1524 VRB03KT CAVOK TX20/1513Z TN10/1504Z
BECMG 1507/1509 25010KT
BECMG 1514/1516 VRB03KT

Example: see airport list